Stations météo

réclame
Mon MeteoGroup
Diepenbeek, Belgique (6477): Température de l'air & dewpoint: 20.10.2020 22:00:00 - 26.10.2020 22:00:00 (CET)Diepenbeek, Belgique (6477): Vitesse du vent & gusts: 20.10.2020 22:00:00 - 26.10.2020 22:00:00 (CET)Diepenbeek, Belgique (6477): Direction du vent: 20.10.2020 22:00:00 - 26.10.2020 22:00:00 (CET)Diepenbeek, Belgique (6477): reduced air pressure: 20.10.2020 22:00:00 - 26.10.2020 22:00:00 (CET)Diepenbeek, Belgique (6477): Ensoleillement: 20.10.2020 22:00:00 - 26.10.2020 22:00:00 (CET)Diepenbeek, Belgique (6477): Quantités de précipitations: 20.10.2020 22:00:00 - 26.10.2020 22:00:00 (CET)
Date & Time tt [°C] td [°C] ff [km/h] ff [knt] fx [km/h] fx [knt] dd ppp [hPa] sd [min] rr [mm]
26.10.2020 22:00:00 9,9 7,4 16 9 26 14 SSW 1004,1 0 0,0
26.10.2020 21:00:00 10,1 7,5 17 9 27 15 SSW 1003,6 0 0,0
26.10.2020 20:00:00 9,9 7,8 14 7 23 12 SSW 1003,5 0 0,0
26.10.2020 19:00:00 10,4 7,3 14 8 27 15 SSW 1003,5 0 0,0
26.10.2020 18:00:00 10,8 7,7 17 9 24 13 SSW 1002,7 0 0,1
26.10.2020 17:00:00 11,8 7,1 17 9 24 13 SSW 1002,7 0 0,0
26.10.2020 16:00:00 12,3 6,7 19 11 39 21 SSW 1002,5 0 0,0
26.10.2020 15:00:00 12,4 6,4 23 12 44 24 SW 1002,3 12 0,0
26.10.2020 14:00:00 12,4 6,3 28 15 45 25 SW 1002,1 10 0,0
26.10.2020 13:00:00 12,2 6,8 29 16 41 22 SW 1002,2 11 0,0
26.10.2020 12:00:00 11,5 7,1 26 14 41 22 SW 1002,6 18 0,0
26.10.2020 11:00:00 10,7 7,3 20 11 36 20 SW 1002,6 1 0,0
26.10.2020 10:00:00 10,1 7,4 17 9 28 15 SSW 1002,8 12 0,0
26.10.2020 09:00:00 9,5 7,3 13 7 24 13 SW 1002,6 0 0,0
26.10.2020 08:00:00 9,3 7,5 13 7 24 13 SSW 1002,5 0 0,0
26.10.2020 07:00:00 9,3 7,9 11 6 20 11 SSW 1001,8 0 0,0
26.10.2020 06:00:00 9,2 8,0 10 5 22 12 SSW 1001,3 0 0,0
26.10.2020 05:00:00 9,5 8,4 10 6 17 9 SSW 1001,3 0 0,0
26.10.2020 04:00:00 9,8 8,6 11 6 18 10 SSW 1001,8 0 0,0
26.10.2020 03:00:00 10,3 9,0 11 6 18 10 SSW 1001,5 0 0,0
26.10.2020 02:00:00 10,3 9,3 10 6 16 8 SSW 1001,3 0 0,0
26.10.2020 01:00:00 10,6 9,7 11 6 19 11 SSW 1001,7 0 0,1
26.10.2020 00:00:00 11,0 9,7 12 6 21 11 SSW 1002,1 0 0,0
25.10.2020 23:00:00 10,9 9,5 13 7 21 11 SSW 1002,0 0 0,0
25.10.2020 22:00:00 10,3 9,0 10 5 20 11 SSW 1002,2 0 0,0
25.10.2020 21:00:00 10,8 9,2 11 6 21 11 SSW 1002,4 0 0,0
25.10.2020 20:00:00 11,0 9,3 12 6 23 13 SSW 1002,6 0 0,0
25.10.2020 19:00:00 11,7 9,7 14 8 21 11 SSW 1002,9 0 0,0
25.10.2020 18:00:00 11,9 9,7 14 8 23 12 SSW 1002,8 0 0,0
25.10.2020 17:00:00 12,0 10,2 16 9 24 13 SSW 1002,6 0 0,0
25.10.2020 16:00:00 12,3 10,7 13 7 24 13 S 1002,1 0 0,0
25.10.2020 15:00:00 12,5 11,0 14 7 21 11 S 1002,3 0 0,0
25.10.2020 14:00:00 12,6 11,5 14 8 21 11 SW 1003,1 0 0,4
25.10.2020 13:00:00 12,6 11,6 14 8 26 14 S 1003,0 0 0,1
25.10.2020 12:00:00 12,6 11,7 18 10 29 16 SW 1004,2 0 0,6
25.10.2020 11:00:00 12,7 11,4 16 8 29 16 SSW 1003,3 0 0,1
25.10.2020 10:00:00 12,4 11,6 15 8 26 14 S 1003,2 0 0,2
25.10.2020 09:00:00 12,5 11,4 16 9 30 16 SSW 1004,0 0 1,8
25.10.2020 08:00:00 13,3 10,7 18 10 29 16 SSW 1003,4 0 0,1
25.10.2020 07:00:00 14,0 10,4 25 14 46 25 SSW 1003,4 0 0,0
25.10.2020 06:00:00 14,5 10,6 27 14 49 27 SSW 1003,5 0 0,0
25.10.2020 05:00:00 14,5 10,9 24 13 54 29 SSW 1003,3 0 0,0
25.10.2020 04:00:00 14,8 10,9 29 15 53 29 SSW 1003,9 0 0,0
25.10.2020 03:00:00 15,2 11,1 24 13 46 25 SSW 1004,9 0 0,0
25.10.2020 02:00:00 15,4 11,4 23 12 47 25 S 1005,4 0 0,0
25.10.2020 01:00:00 - - - - - - - - - -
25.10.2020 00:00:00 15,6 11,7 31 17 48 26 SSW 1006,9 0 0,0
24.10.2020 23:00:00 15,6 11,9 24 13 42 23 SSW 1007,4 0 0,0
24.10.2020 22:00:00 15,5 12,2 24 13 40 22 SSW 1007,7 0 0,0
24.10.2020 21:00:00 15,3 12,3 22 12 37 20 SSW 1008,3 0 0,0
24.10.2020 20:00:00 14,9 12,4 19 10 36 19 SSW 1009,1 0 0,0
24.10.2020 19:00:00 14,6 12,1 18 10 36 20 S 1009,7 0 0,0
24.10.2020 18:00:00 15,0 12,2 25 14 44 24 SSW 1010,3 0 0,0
24.10.2020 17:00:00 15,0 12,1 23 12 35 19 S 1010,6 0 0,0
24.10.2020 16:00:00 14,9 12,2 23 12 48 26 SSW 1011,2 0 0,0
24.10.2020 15:00:00 15,3 12,0 24 13 46 25 SSW 1011,6 0 0,0
24.10.2020 14:00:00 14,9 11,9 24 13 44 24 SSW 1012,2 0 0,0
24.10.2020 13:00:00 14,9 11,4 24 13 45 25 SSW 1012,7 0 0,0
24.10.2020 12:00:00 14,5 11,1 24 13 41 22 SSW 1013,2 1 0,0
24.10.2020 11:00:00 13,8 11,2 23 12 43 23 SW 1013,3 0 0,0
24.10.2020 10:00:00 13,2 11,4 21 11 36 19 SSW 1013,3 0 0,0
24.10.2020 09:00:00 13,4 10,8 20 11 29 16 SSW 1013,1 0 0,0
24.10.2020 08:00:00 13,0 10,7 18 10 31 17 SSW 1013,0 0 0,0
24.10.2020 07:00:00 12,5 10,8 11 6 24 13 SSW 1013,1 0 0,0
24.10.2020 06:00:00 12,7 10,8 14 8 23 13 SSW 1013,3 0 0,0
24.10.2020 05:00:00 12,6 11,0 12 6 23 13 SW 1013,5 0 0,0
24.10.2020 04:00:00 12,9 11,2 14 8 26 14 SW 1013,3 0 0,0
24.10.2020 03:00:00 12,6 11,7 11 6 16 9 SW 1013,6 0 0,0
24.10.2020 02:00:00 12,2 11,6 6 4 11 6 SW 1013,7 0 0,0
24.10.2020 01:00:00 11,4 10,5 7 4 15 8 SW 1013,4 0 0,0
24.10.2020 00:00:00 12,9 11,1 11 6 23 12 SW 1013,6 0 0,0
23.10.2020 23:00:00 13,4 11,8 12 6 19 11 SW 1013,5 0 0,0
23.10.2020 22:00:00 13,6 12,4 11 6 17 9 SSW 1012,7 0 0,0
23.10.2020 21:00:00 13,6 12,4 10 5 15 8 SSW 1012,2 0 0,0
23.10.2020 20:00:00 12,5 12,1 8 4 12 6 S 1012,0 0 0,0
23.10.2020 19:00:00 13,2 12,4 7 4 11 6 SSW 1011,7 0 0,0
23.10.2020 18:00:00 14,5 12,7 8 4 18 10 SSW 1011,1 5 0,0
23.10.2020 17:00:00 16,7 13,4 10 6 24 13 WSW 1010,8 55 0,0
23.10.2020 16:00:00 17,4 14,3 14 8 22 12 SW 1010,6 48 0,0
23.10.2020 15:00:00 16,7 14,7 12 7 19 10 WSW 1010,5 22 0,0
23.10.2020 14:00:00 16,1 15,0 9 5 17 9 SW 1010,7 8 0,2
23.10.2020 13:00:00 15,8 14,9 11 6 16 9 SW 1011,2 1 0,0
23.10.2020 12:00:00 15,2 14,7 9 5 16 9 SSW 1011,5 0 0,1
23.10.2020 11:00:00 14,6 14,6 7 4 12 6 SSW 1011,6 0 0,8
23.10.2020 10:00:00 14,4 14,4 6 3 13 7 S 1011,7 0 3,7
23.10.2020 09:00:00 14,2 14,2 6 4 10 5 SSW 1011,6 0 0,5
23.10.2020 08:00:00 13,6 13,6 4 2 7 4 S 1011,4 0 0,5
23.10.2020 07:00:00 12,8 12,8 4 2 5 3 SSE 1011,3 0 0,0
23.10.2020 06:00:00 12,3 12,3 4 2 4 2 SSE 1011,5 0 0,0
23.10.2020 05:00:00 12,3 12,3 0 0 3 2 N 1011,8 0 0,0
23.10.2020 04:00:00 12,7 12,7 0 0 4 2 N 1012,2 0 0,0
23.10.2020 03:00:00 12,1 12,1 4 2 4 2 SSE 1012,6 0 0,0
23.10.2020 02:00:00 12,2 12,2 4 2 8 5 S 1013,1 0 0,0
23.10.2020 01:00:00 12,1 12,1 0 0 4 2 N 1013,3 0 0,0
23.10.2020 00:00:00 11,6 11,6 0 0 4 2 N 1013,2 0 0,0
22.10.2020 23:00:00 11,7 11,7 4 2 5 3 NNE 1013,3 0 0,0
22.10.2020 22:00:00 12,0 12,0 4 2 5 3 SSW 1013,2 0 0,0
22.10.2020 21:00:00 12,7 12,7 5 3 8 4 SW 1013,0 0 0,0
22.10.2020 20:00:00 13,4 13,4 5 3 11 6 SSW 1012,7 0 0,0
22.10.2020 19:00:00 13,3 13,3 7 4 11 6 S 1012,6 0 0,0
22.10.2020 18:00:00 15,1 14,2 6 3 13 7 S 1012,2 7 0,0
22.10.2020 17:00:00 16,9 14,9 9 5 23 12 SSW 1011,8 18 0,0
22.10.2020 16:00:00 17,3 15,2 13 7 19 11 SW 1011,7 3 0,0
22.10.2020 15:00:00 18,7 14,9 15 8 32 17 WSW 1011,5 22 0,0
22.10.2020 14:00:00 18,2 14,3 17 9 33 18 SSW 1011,7 3 0,0
22.10.2020 13:00:00 18,3 14,2 22 12 34 18 SSW 1012,0 20 0,0
22.10.2020 12:00:00 18,4 14,4 24 13 37 20 SSW 1012,4 36 0,0
22.10.2020 11:00:00 16,8 14,1 15 8 28 15 SSW 1012,8 0 0,0
22.10.2020 10:00:00 16,0 14,0 14 8 24 13 SSW 1012,9 0 0,0
22.10.2020 09:00:00 - - - - - - - - - -
22.10.2020 08:00:00 - - - - - - - - - -
22.10.2020 07:00:00 - - - - - - - - - -
22.10.2020 06:00:00 - - - - - - - - - -
22.10.2020 05:00:00 - - - - - - - - - -
22.10.2020 04:00:00 - - - - - - - - - -
22.10.2020 03:00:00 - - - - - - - - - -
22.10.2020 02:00:00 - - - - - - - - - -
22.10.2020 01:00:00 - - - - - - - - - -
22.10.2020 00:00:00 - - - - - - - - - -
21.10.2020 23:00:00 - - - - - - - - - -
21.10.2020 22:00:00 - - - - - - - - - -
21.10.2020 21:00:00 - - - - - - - - - -
21.10.2020 20:00:00 - - - - - - - - - -
21.10.2020 19:00:00 - - - - - - - - - -
21.10.2020 18:00:00 - - - - - - - - - -
21.10.2020 17:00:00 - - - - - - - - - -
21.10.2020 16:00:00 - - - - - - - - - -
21.10.2020 15:00:00 - - - - - - - - - -
21.10.2020 14:00:00 - - - - - - - - - -
21.10.2020 13:00:00 - - - - - - - - - -
21.10.2020 12:00:00 - - - - - - - - 1 4,2
21.10.2020 11:00:00 16,6 10,9 25 13 40 22 S 1002,1 0 0,0
21.10.2020 10:00:00 14,4 11,5 14 8 29 16 S 1002,9 0 0,2
21.10.2020 09:00:00 13,3 11,3 12 7 21 11 S 1003,9 0 0,2
21.10.2020 08:00:00 12,9 11,6 12 6 25 13 S 1003,9 0 0,4
21.10.2020 07:00:00 12,2 11,7 11 6 16 8 SSE 1004,1 0 0,7
21.10.2020 06:00:00 12,3 11,6 8 4 16 9 SSE 1004,5 0 0,5
21.10.2020 05:00:00 12,6 11,8 9 5 20 11 SE 1004,5 0 0,4
21.10.2020 04:00:00 13,1 12,0 11 6 18 10 S 1005,5 0 0,3
21.10.2020 03:00:00 13,4 12,2 11 6 23 12 S 1006,0 0 0,3
21.10.2020 02:00:00 13,7 12,5 10 6 19 11 SSE 1006,7 0 0,0
21.10.2020 01:00:00 14,1 12,7 11 6 20 11 S 1007,1 0 0,0
21.10.2020 00:00:00 13,7 13,0 5 3 17 9 SSE 1007,7 0 0,0
20.10.2020 23:00:00 13,5 13,0 9 5 18 10 SSE 1008,2 0 0,3
20.10.2020 22:00:00 13,7 12,8 10 5 18 10 S 1008,7 0 0,2

tt = Température de l'air
td = dewpoint
ff = Vitesse du vent
fx = gusts
dd = Direction du vent
ppp = reduced air pressure
sd = Ensoleillement
rr = Quantités de précipitations

stations d'obs. à proximité